Arlington, Illinois
Current Conditions -  °F | °C
As of 1:55 PM on Thursday 30 Oct 2014 (Local Time) from KVYS Reporting Station
Overcast Overcast  
Wind Chill: 45°   Ceiling: 6500
Heat Index: 48°   Visibility: 10mi
Dew Point: 37°   Wind: 7mph
Humidity: 64%   Direction: 220°SW
Pressure: 30.09"   Gusts: NA
Location:  41.47°N, 89.25°W
Report Text: KVYS 301855Z AUTO 22006KT 10SM BKN065 OVC080 09/03 A3009 RMK AO2 T00910026
Loading
Personal Weather Stations






























Interactive Weather Map
Tropical Storm Tracking
New forecast layout! Learn more

10-Day Weather Forecast

Advertisements
Track Severe Weather on mobile